createdAt,value
2022-09-24T00:00:39.103Z,1012.02
2022-09-24T00:01:39.262Z,1011.99
2022-09-24T00:02:39.164Z,1012.01
2022-09-24T00:03:39.059Z,1012.00
2022-09-24T00:04:39.122Z,1011.95
2022-09-24T00:05:39.634Z,1011.96
2022-09-24T00:06:39.063Z,1011.91
2022-09-24T00:07:39.029Z,1011.96
2022-09-24T00:08:39.000Z,1011.95
2022-09-24T00:09:38.993Z,1011.96
2022-09-24T00:10:39.024Z,1011.96
2022-09-24T00:11:39.035Z,1011.93
2022-09-24T00:12:38.967Z,1011.98
2022-09-24T00:13:38.941Z,1011.93
2022-09-24T00:14:38.936Z,1011.90
2022-09-24T00:15:38.936Z,1011.92
2022-09-24T00:16:39.079Z,1011.92
2022-09-24T00:17:38.902Z,1011.94
2022-09-24T00:18:38.896Z,1011.92
2022-09-24T00:19:38.868Z,1011.90
2022-09-24T00:20:38.866Z,1011.91
2022-09-24T00:21:38.894Z,1011.90
2022-09-24T00:22:38.870Z,1011.86
2022-09-24T00:23:38.829Z,1011.85
2022-09-24T00:24:38.823Z,1011.87
2022-09-24T00:25:38.813Z,1011.83
2022-09-24T00:26:39.650Z,1011.84
2022-09-24T00:27:38.807Z,1011.85
2022-09-24T00:28:38.863Z,1011.85
2022-09-24T00:29:38.762Z,1011.76
2022-09-24T00:30:38.750Z,1011.83
2022-09-24T00:31:38.805Z,1011.83
2022-09-24T00:32:38.744Z,1011.81
2022-09-24T00:33:38.706Z,1011.75
2022-09-24T00:34:38.751Z,1011.81
2022-09-24T00:35:38.687Z,1011.75
2022-09-24T00:36:38.687Z,1011.77
2022-09-24T00:37:38.694Z,1011.76
2022-09-24T00:38:38.663Z,1011.72
2022-09-24T00:39:38.670Z,1011.75
2022-09-24T00:40:38.718Z,1011.74
2022-09-24T00:41:38.668Z,1011.72
2022-09-24T00:42:38.609Z,1011.73
2022-09-24T00:43:38.846Z,1011.65
2022-09-24T00:44:39.558Z,1011.67
2022-09-24T00:45:38.592Z,1011.70
2022-09-24T00:46:38.709Z,1011.68
2022-09-24T00:47:38.553Z,1011.66
2022-09-24T00:48:38.584Z,1011.65
2022-09-24T00:49:38.526Z,1011.67
2022-09-24T00:50:38.530Z,1011.61
2022-09-24T00:51:38.502Z,1011.61
2022-09-24T00:52:38.549Z,1011.65
2022-09-24T00:53:38.546Z,1011.58
2022-09-24T00:54:38.517Z,1011.62
2022-09-24T00:55:38.468Z,1011.62
2022-09-24T00:56:38.470Z,1011.59
2022-09-24T00:57:38.448Z,1011.56
2022-09-24T00:58:38.471Z,1011.55
2022-09-24T00:59:40.160Z,1011.53
2022-09-24T01:00:38.507Z,1011.56
2022-09-24T01:01:38.474Z,1011.54
2022-09-24T01:02:38.438Z,1011.51
2022-09-24T01:03:38.372Z,1011.54
2022-09-24T01:04:38.492Z,1011.52
2022-09-24T01:05:38.415Z,1011.48
2022-09-24T01:06:38.337Z,1011.54
2022-09-24T01:07:38.325Z,1011.52
2022-09-24T01:08:38.316Z,1011.47
2022-09-24T01:09:38.296Z,1011.46
2022-09-24T01:10:38.348Z,1011.48
2022-09-24T01:11:38.309Z,1011.47
2022-09-24T01:12:38.292Z,1011.48
2022-09-24T01:13:42.884Z,1011.52
2022-09-24T01:14:38.256Z,1011.44
2022-09-24T01:15:38.230Z,1011.47
2022-09-24T01:16:38.518Z,1011.49
2022-09-24T01:17:38.215Z,1011.44
2022-09-24T01:18:38.197Z,1011.45
2022-09-24T01:19:38.190Z,1011.45
2022-09-24T01:20:38.186Z,1011.46
2022-09-24T01:21:38.473Z,1011.39
2022-09-24T01:22:38.273Z,1011.42
2022-09-24T01:23:38.136Z,1011.32
2022-09-24T01:24:38.152Z,1011.39
2022-09-24T01:25:38.118Z,1011.35
2022-09-24T01:26:38.102Z,1011.42
2022-09-24T01:27:38.131Z,1011.32
2022-09-24T01:28:38.158Z,1011.30
2022-09-24T01:29:38.069Z,1011.31
2022-09-24T01:30:38.083Z,1011.26
2022-09-24T01:31:39.024Z,1011.28
2022-09-24T01:32:38.047Z,1011.29
2022-09-24T01:33:38.025Z,1011.29
2022-09-24T01:34:38.051Z,1011.29
2022-09-24T01:35:38.006Z,1011.31
2022-09-24T01:36:38.006Z,1011.29
2022-09-24T01:37:37.973Z,1011.28
2022-09-24T01:38:37.967Z,1011.26
2022-09-24T01:39:37.982Z,1011.26
2022-09-24T01:40:38.067Z,1011.25
2022-09-24T01:41:37.987Z,1011.24
2022-09-24T01:42:37.928Z,1011.22
2022-09-24T01:43:37.905Z,1011.24
2022-09-24T01:44:37.898Z,1011.23
2022-09-24T01:45:37.892Z,1011.20
2022-09-24T01:46:38.029Z,1011.15
2022-09-24T01:47:37.907Z,1011.16
2022-09-24T01:48:37.926Z,1011.17
2022-09-24T01:49:37.853Z,1011.14
2022-09-24T01:50:37.828Z,1011.16
2022-09-24T01:51:37.839Z,1011.13
2022-09-24T01:52:37.879Z,1011.14
2022-09-24T01:53:37.801Z,1011.12
2022-09-24T01:54:37.801Z,1011.13
2022-09-24T01:55:37.778Z,1011.12
2022-09-24T01:56:38.168Z,1011.04
2022-09-24T01:57:38.537Z,1011.12
2022-09-24T01:58:38.232Z,1011.10
2022-09-24T01:59:38.027Z,1011.11
2022-09-24T02:00:37.844Z,1011.05
2022-09-24T02:01:37.752Z,1011.04
2022-09-24T02:02:37.713Z,1011.01
2022-09-24T02:03:37.703Z,1011.06
2022-09-24T02:04:38.674Z,1011.07
2022-09-24T02:05:37.689Z,1011.00
2022-09-24T02:06:37.657Z,1011.01
2022-09-24T02:07:37.631Z,1011.02
2022-09-24T02:08:38.729Z,1010.97
2022-09-24T02:09:37.623Z,1011.00
2022-09-24T02:10:37.678Z,1010.98
2022-09-24T02:11:37.600Z,1010.97
2022-09-24T02:12:37.641Z,1010.96
2022-09-24T02:13:37.574Z,1010.99
2022-09-24T02:14:37.568Z,1010.96
2022-09-24T02:15:37.552Z,1010.96
2022-09-24T02:16:37.629Z,1010.97
2022-09-24T02:17:37.565Z,1010.93
2022-09-24T02:18:37.517Z,1010.89
2022-09-24T02:19:37.503Z,1010.91
2022-09-24T02:20:37.507Z,1010.93
2022-09-24T02:21:37.479Z,1010.94
2022-09-24T02:22:37.506Z,1010.91
2022-09-24T02:23:37.458Z,1010.88
2022-09-24T02:24:37.490Z,1010.89
2022-09-24T02:25:37.503Z,1010.91
2022-09-24T02:26:37.423Z,1010.88
2022-09-24T02:27:37.432Z,1010.90
2022-09-24T02:28:37.519Z,1010.89
2022-09-24T02:29:37.452Z,1010.85
2022-09-24T02:30:37.390Z,1010.86
2022-09-24T02:31:38.778Z,1010.86
2022-09-24T02:32:37.403Z,1010.87
2022-09-24T02:33:37.382Z,1010.92
2022-09-24T02:34:38.180Z,1010.84
2022-09-24T02:35:37.344Z,1010.89
2022-09-24T02:36:37.355Z,1010.85
2022-09-24T02:37:37.379Z,1010.88
2022-09-24T02:38:37.284Z,1010.81
2022-09-24T02:39:37.289Z,1010.84
2022-09-24T02:40:37.382Z,1010.83
2022-09-24T02:41:37.255Z,1010.81
2022-09-24T02:42:37.294Z,1010.82
2022-09-24T02:43:37.255Z,1010.82
2022-09-24T02:44:37.311Z,1010.77
2022-09-24T02:45:37.247Z,1010.83
2022-09-24T02:46:38.261Z,1010.77
2022-09-24T02:47:37.249Z,1010.76
2022-09-24T02:48:37.410Z,1010.79
2022-09-24T02:49:38.378Z,1010.75
2022-09-24T02:50:37.529Z,1010.76
2022-09-24T02:51:37.390Z,1010.74
2022-09-24T02:52:37.527Z,1010.76
2022-09-24T02:53:37.333Z,1010.77
2022-09-24T02:54:37.455Z,1010.73
2022-09-24T02:55:37.174Z,1010.73
2022-09-24T02:56:37.215Z,1010.68
2022-09-24T02:57:37.322Z,1010.67
2022-09-24T02:58:37.194Z,1010.70
2022-09-24T02:59:37.094Z,1010.68
2022-09-24T03:00:37.063Z,1010.68
2022-09-24T03:01:37.188Z,1010.67
2022-09-24T03:02:37.185Z,1010.66
2022-09-24T03:03:37.140Z,1010.65
2022-09-24T03:04:37.022Z,1010.64
2022-09-24T03:05:37.069Z,1010.61
2022-09-24T03:06:37.203Z,1010.64
2022-09-24T03:07:36.981Z,1010.61
2022-09-24T03:08:37.029Z,1010.58
2022-09-24T03:09:36.946Z,1010.59
2022-09-24T03:10:37.021Z,1010.55
2022-09-24T03:11:36.954Z,1010.55
2022-09-24T03:12:36.897Z,1010.56
2022-09-24T03:13:36.954Z,1010.57
2022-09-24T03:14:37.059Z,1010.59
2022-09-24T03:15:37.062Z,1010.54
2022-09-24T03:16:37.018Z,1010.53
2022-09-24T03:17:36.895Z,1010.54
2022-09-24T03:18:37.007Z,1010.56
2022-09-24T03:19:36.843Z,1010.55
2022-09-24T03:20:36.900Z,1010.53
2022-09-24T03:21:36.821Z,1010.53
2022-09-24T03:22:37.267Z,1010.55
2022-09-24T03:23:36.805Z,1010.53
2022-09-24T03:24:36.998Z,1010.55
2022-09-24T03:25:36.801Z,1010.57
2022-09-24T03:26:36.761Z,1010.55
2022-09-24T03:27:36.778Z,1010.55
2022-09-24T03:28:36.880Z,1010.57
2022-09-24T03:29:36.759Z,1010.55
2022-09-24T03:30:36.698Z,1010.52
2022-09-24T03:31:37.139Z,1010.52
2022-09-24T03:32:36.766Z,1010.53
2022-09-24T03:33:37.626Z,1010.52
2022-09-24T03:34:36.718Z,1010.53
2022-09-24T03:35:36.922Z,1010.52
2022-09-24T03:36:36.731Z,1010.45
2022-09-24T03:37:36.760Z,1010.48
2022-09-24T03:38:36.685Z,1010.46
2022-09-24T03:39:36.869Z,1010.42
2022-09-24T03:40:36.755Z,1010.43
2022-09-24T03:41:36.723Z,1010.45
2022-09-24T03:42:36.630Z,1010.43
2022-09-24T03:43:36.925Z,1010.42
2022-09-24T03:44:36.746Z,1010.41
2022-09-24T03:45:36.581Z,1010.47
2022-09-24T03:46:37.044Z,1010.51
2022-09-24T03:47:36.531Z,1010.46
2022-09-24T03:48:36.549Z,1010.45
2022-09-24T03:49:36.602Z,1010.42
2022-09-24T03:50:36.594Z,1010.44
2022-09-24T03:51:36.510Z,1010.40
2022-09-24T03:52:36.883Z,1010.41
2022-09-24T03:53:36.651Z,1010.38
2022-09-24T03:54:36.489Z,1010.38
2022-09-24T03:55:36.477Z,1010.39
2022-09-24T03:56:36.578Z,1010.37
2022-09-24T03:57:36.469Z,1010.39
2022-09-24T03:58:36.512Z,1010.33
2022-09-24T03:59:36.440Z,1010.36
2022-09-24T04:00:40.921Z,1010.34
2022-09-24T04:01:36.557Z,1010.33
2022-09-24T04:02:36.539Z,1010.32
2022-09-24T04:03:36.404Z,1010.31
2022-09-24T04:04:36.382Z,1010.29
2022-09-24T04:05:36.350Z,1010.29
2022-09-24T04:06:36.341Z,1010.30
2022-09-24T04:07:36.403Z,1010.35
2022-09-24T04:08:36.459Z,1010.31
2022-09-24T04:09:36.292Z,1010.30
2022-09-24T04:10:36.384Z,1010.34
2022-09-24T04:11:36.387Z,1010.32
2022-09-24T04:12:36.457Z,1010.34
2022-09-24T04:13:36.319Z,1010.38
2022-09-24T04:14:36.275Z,1010.35
2022-09-24T04:15:36.194Z,1010.33
2022-09-24T04:16:36.272Z,1010.37
2022-09-24T04:17:36.182Z,1010.32
2022-09-24T04:18:39.279Z,1010.33
2022-09-24T04:19:36.172Z,1010.34
2022-09-24T04:20:36.162Z,1010.39
2022-09-24T04:21:36.311Z,1010.32
2022-09-24T04:22:36.182Z,1010.34
2022-09-24T04:23:36.119Z,1010.33
2022-09-24T04:24:36.093Z,1010.34
2022-09-24T04:25:36.110Z,1010.31
2022-09-24T04:26:36.100Z,1010.27
2022-09-24T04:27:36.051Z,1010.32
2022-09-24T04:28:36.131Z,1010.32
2022-09-24T04:29:36.110Z,1010.32
2022-09-24T04:30:36.059Z,1010.31
2022-09-24T04:31:36.131Z,1010.33
2022-09-24T04:32:36.117Z,1010.29
2022-09-24T04:33:36.046Z,1010.28
2022-09-24T04:34:36.177Z,1010.30
2022-09-24T04:35:36.115Z,1010.28
2022-09-24T04:36:35.949Z,1010.31
2022-09-24T04:37:36.081Z,1010.28
2022-09-24T04:38:36.030Z,1010.30
2022-09-24T04:39:35.910Z,1010.29
2022-09-24T04:40:36.054Z,1010.27
2022-09-24T04:41:35.971Z,1010.29
2022-09-24T04:42:35.944Z,1010.28
2022-09-24T04:43:35.955Z,1010.22
2022-09-24T04:44:35.882Z,1010.27
2022-09-24T04:45:35.906Z,1010.25
2022-09-24T04:46:35.887Z,1010.23
2022-09-24T04:47:35.969Z,1010.24
2022-09-24T04:48:35.899Z,1010.26
2022-09-24T04:49:35.798Z,1010.25
2022-09-24T04:50:35.870Z,1010.28
2022-09-24T04:51:35.798Z,1010.24
2022-09-24T04:52:36.033Z,1010.25
2022-09-24T04:53:35.768Z,1010.23
2022-09-24T04:54:35.862Z,1010.25
2022-09-24T04:55:35.966Z,1010.24
2022-09-24T04:56:35.832Z,1010.22
2022-09-24T04:57:35.707Z,1010.22
2022-09-24T04:58:35.814Z,1010.24
2022-09-24T04:59:35.853Z,1010.23
2022-09-24T05:00:35.882Z,1010.24
2022-09-24T05:01:35.818Z,1010.23
2022-09-24T05:02:35.768Z,1010.27
2022-09-24T05:03:35.783Z,1010.23
2022-09-24T05:04:35.942Z,1010.24
2022-09-24T05:05:35.703Z,1010.26
2022-09-24T05:06:35.735Z,1010.24
2022-09-24T05:07:35.652Z,1010.26
2022-09-24T05:08:35.739Z,1010.26
2022-09-24T05:09:35.722Z,1010.26
2022-09-24T05:10:35.775Z,1010.29
2022-09-24T05:11:35.660Z,1010.33
2022-09-24T05:12:35.681Z,1010.33
2022-09-24T05:13:35.593Z,1010.30
2022-09-24T05:14:35.742Z,1010.35
2022-09-24T05:15:38.517Z,1010.37
2022-09-24T05:16:35.596Z,1010.34
2022-09-24T05:17:36.175Z,1010.34
2022-09-24T05:18:35.554Z,1010.37
2022-09-24T05:19:35.491Z,1010.34
2022-09-24T05:20:35.599Z,1010.37
2022-09-24T05:21:35.580Z,1010.34
2022-09-24T05:22:35.583Z,1010.38
2022-09-24T05:23:35.649Z,1010.35
2022-09-24T05:24:35.714Z,1010.36
2022-09-24T05:25:35.648Z,1010.37
2022-09-24T05:26:35.593Z,1010.41
2022-09-24T05:27:35.536Z,1010.37
2022-09-24T05:28:35.558Z,1010.37
2022-09-24T05:29:41.906Z,1010.36
2022-09-24T05:30:43.810Z,1010.34
2022-09-24T05:31:41.658Z,1010.35
2022-09-24T05:32:35.335Z,1010.37
2022-09-24T05:33:35.334Z,1010.39
2022-09-24T05:34:35.527Z,1010.42
2022-09-24T05:35:35.592Z,1010.37
2022-09-24T05:36:35.536Z,1010.36
2022-09-24T05:37:35.501Z,1010.40
2022-09-24T05:38:35.281Z,1010.39
2022-09-24T05:39:35.235Z,1010.39
2022-09-24T05:40:35.432Z,1010.40
2022-09-24T05:41:35.294Z,1010.35
2022-09-24T05:42:35.267Z,1010.39
2022-09-24T05:43:35.297Z,1010.38
2022-09-24T05:44:35.287Z,1010.39
2022-09-24T05:45:35.502Z,1010.37
2022-09-24T05:46:35.360Z,1010.44
2022-09-24T05:47:35.392Z,1010.42
2022-09-24T05:48:35.158Z,1010.40
2022-09-24T05:49:35.137Z,1010.40
2022-09-24T05:50:35.362Z,1010.39
2022-09-24T05:51:35.105Z,1010.40
2022-09-24T05:52:35.318Z,1010.40
2022-09-24T05:53:35.196Z,1010.41
2022-09-24T05:54:35.176Z,1010.45
2022-09-24T05:55:35.056Z,1010.45
2022-09-24T05:56:35.217Z,1010.42
2022-09-24T05:57:35.192Z,1010.43
2022-09-24T05:58:35.200Z,1010.47
2022-09-24T05:59:35.234Z,1010.44
2022-09-24T06:00:35.340Z,1010.45
2022-09-24T06:01:35.057Z,1010.45
2022-09-24T06:02:35.038Z,1010.46
2022-09-24T06:03:35.123Z,1010.46
2022-09-24T06:04:35.570Z,1010.46
2022-09-24T06:05:35.933Z,1010.46
2022-09-24T06:06:35.154Z,1010.52
2022-09-24T06:07:35.120Z,1010.54
2022-09-24T06:08:34.929Z,1010.49
2022-09-24T06:09:35.130Z,1010.49
2022-09-24T06:10:35.235Z,1010.50
2022-09-24T06:11:39.801Z,1010.49
2022-09-24T06:12:35.084Z,1010.54
2022-09-24T06:13:34.850Z,1010.56
2022-09-24T06:14:34.965Z,1010.56
2022-09-24T06:15:34.843Z,1010.56
2022-09-24T06:16:35.149Z,1010.55
2022-09-24T06:17:34.895Z,1010.51
2022-09-24T06:18:34.850Z,1010.51
2022-09-24T06:19:34.878Z,1010.58
2022-09-24T06:20:34.940Z,1010.56
2022-09-24T06:21:34.938Z,1010.54
2022-09-24T06:22:34.874Z,1010.59
2022-09-24T06:23:34.802Z,1010.55
2022-09-24T06:24:34.864Z,1010.52
2022-09-24T06:25:35.185Z,1010.56
2022-09-24T06:26:34.748Z,1010.58
2022-09-24T06:27:34.809Z,1010.53
2022-09-24T06:28:34.946Z,1010.55
2022-09-24T06:29:34.739Z,1010.54
2022-09-24T06:30:34.648Z,1010.59
2022-09-24T06:31:34.945Z,1010.60
2022-09-24T06:32:34.745Z,1010.60
2022-09-24T06:33:34.682Z,1010.56
2022-09-24T06:34:34.906Z,1010.59
2022-09-24T06:35:34.594Z,1010.61
2022-09-24T06:36:34.590Z,1010.57
2022-09-24T06:37:34.575Z,1010.57
2022-09-24T06:38:34.553Z,1010.59
2022-09-24T06:39:34.682Z,1010.61
2022-09-24T06:40:37.402Z,1010.58
2022-09-24T06:41:34.699Z,1010.62
2022-09-24T06:42:34.554Z,1010.60
2022-09-24T06:43:34.803Z,1010.63
2022-09-24T06:44:34.545Z,1010.65
2022-09-24T06:45:34.585Z,1010.70
2022-09-24T06:46:34.628Z,1010.70
2022-09-24T06:47:34.457Z,1010.71
2022-09-24T06:48:34.480Z,1010.72
2022-09-24T06:49:34.597Z,1010.71
2022-09-24T06:50:34.474Z,1010.71
2022-09-24T06:51:34.409Z,1010.70
2022-09-24T06:52:35.191Z,1010.70
2022-09-24T06:53:34.398Z,1010.72
2022-09-24T06:54:34.389Z,1010.73
2022-09-24T06:55:34.408Z,1010.72
2022-09-24T06:56:36.268Z,1010.74
2022-09-24T06:57:35.210Z,1010.73
2022-09-24T06:58:34.457Z,1010.71
2022-09-24T06:59:34.312Z,1010.72
2022-09-24T07:00:34.391Z,1010.76
2022-09-24T07:01:34.489Z,1010.72
2022-09-24T07:02:34.355Z,1010.73
2022-09-24T07:03:34.283Z,1010.78
2022-09-24T07:04:34.418Z,1010.74
2022-09-24T07:05:36.297Z,1010.76
2022-09-24T07:06:34.281Z,1010.79
2022-09-24T07:07:34.231Z,1010.80
2022-09-24T07:08:34.314Z,1010.76
2022-09-24T07:09:34.313Z,1010.78
2022-09-24T07:10:34.308Z,1010.79
2022-09-24T07:11:34.251Z,1010.83
2022-09-24T07:12:34.170Z,1010.81
2022-09-24T07:13:35.097Z,1010.81
2022-09-24T07:14:34.159Z,1010.81
2022-09-24T07:15:34.146Z,1010.79
2022-09-24T07:16:34.804Z,1010.81
2022-09-24T07:17:34.202Z,1010.85
2022-09-24T07:18:34.152Z,1010.79
2022-09-24T07:19:34.126Z,1010.82
2022-09-24T07:20:34.412Z,1010.81
2022-09-24T07:21:34.208Z,1010.84
2022-09-24T07:22:34.169Z,1010.83
2022-09-24T07:23:34.068Z,1010.80
2022-09-24T07:24:34.059Z,1010.84
2022-09-24T07:25:34.690Z,1010.90
2022-09-24T07:26:34.054Z,1010.86
2022-09-24T07:27:34.041Z,1010.90
2022-09-24T07:28:34.200Z,1010.93
2022-09-24T07:29:34.015Z,1010.88
2022-09-24T07:30:33.975Z,1010.93
2022-09-24T07:31:34.602Z,1010.91
2022-09-24T07:32:34.098Z,1010.90
2022-09-24T07:33:34.225Z,1010.86
2022-09-24T07:34:34.020Z,1010.89
2022-09-24T07:35:33.968Z,1010.92
2022-09-24T07:36:33.896Z,1010.87
2022-09-24T07:37:33.896Z,1010.90
2022-09-24T07:38:34.040Z,1010.94
2022-09-24T07:39:33.902Z,1010.91
2022-09-24T07:40:34.074Z,1010.93
2022-09-24T07:41:36.376Z,1010.94
2022-09-24T07:42:33.879Z,1010.94
2022-09-24T07:43:33.923Z,1010.94
2022-09-24T07:44:33.880Z,1010.89
2022-09-24T07:45:33.857Z,1010.93
2022-09-24T07:46:33.986Z,1010.93
2022-09-24T07:47:33.778Z,1010.95
2022-09-24T07:48:33.790Z,1010.93
2022-09-24T07:49:33.753Z,1010.94
2022-09-24T07:50:33.760Z,1010.98
2022-09-24T07:51:33.753Z,1010.98
2022-09-24T07:52:33.818Z,1010.99
2022-09-24T07:53:33.699Z,1011.04
2022-09-24T07:54:33.706Z,1011.00
2022-09-24T07:55:33.778Z,1011.04
2022-09-24T07:56:33.747Z,1011.07
2022-09-24T07:57:33.698Z,1010.95
2022-09-24T07:58:34.106Z,1010.98
2022-09-24T07:59:33.681Z,1011.00
2022-09-24T08:00:33.658Z,1011.01
2022-09-24T08:01:33.964Z,1011.00
2022-09-24T08:02:33.722Z,1011.02
2022-09-24T08:03:33.714Z,1011.02
2022-09-24T08:04:33.689Z,1011.10
2022-09-24T08:05:33.568Z,1011.07
2022-09-24T08:06:38.275Z,1011.09
2022-09-24T08:07:34.006Z,1011.07
2022-09-24T08:08:34.012Z,1011.09
2022-09-24T08:09:33.976Z,1011.06
2022-09-24T08:10:33.642Z,1011.11
2022-09-24T08:11:33.545Z,1011.07
2022-09-24T08:12:33.545Z,1011.13
2022-09-24T08:13:33.480Z,1011.07
2022-09-24T08:14:33.495Z,1011.06
2022-09-24T08:15:33.565Z,1011.07
2022-09-24T08:16:33.576Z,1011.08
2022-09-24T08:17:33.521Z,1011.07
2022-09-24T08:18:33.473Z,1011.09
2022-09-24T08:19:33.483Z,1011.11
2022-09-24T08:20:33.648Z,1011.16
2022-09-24T08:21:33.631Z,1011.17
2022-09-24T08:22:33.495Z,1011.17
2022-09-24T08:23:33.435Z,1011.16
2022-09-24T08:24:33.432Z,1011.20
2022-09-24T08:25:33.341Z,1011.24
2022-09-24T08:26:33.326Z,1011.25
2022-09-24T08:27:33.376Z,1011.23
2022-09-24T08:28:33.563Z,1011.28
2022-09-24T08:29:33.335Z,1011.29
2022-09-24T08:30:34.208Z,1011.25
2022-09-24T08:31:33.937Z,1011.26
2022-09-24T08:32:33.341Z,1011.27
2022-09-24T08:33:33.253Z,1011.28
2022-09-24T08:34:33.439Z,1011.30
2022-09-24T08:35:33.285Z,1011.28
2022-09-24T08:36:33.226Z,1011.33
2022-09-24T08:37:33.210Z,1011.28
2022-09-24T08:38:33.280Z,1011.35
2022-09-24T08:39:33.262Z,1011.36
2022-09-24T08:40:33.263Z,1011.38
2022-09-24T08:41:33.338Z,1011.33
2022-09-24T08:42:33.347Z,1011.35
2022-09-24T08:43:33.258Z,1011.37
2022-09-24T08:44:33.471Z,1011.36
2022-09-24T08:45:33.344Z,1011.37
2022-09-24T08:46:33.395Z,1011.36
2022-09-24T08:47:33.759Z,1011.39
2022-09-24T08:48:33.244Z,1011.36
2022-09-24T08:49:33.433Z,1011.38
2022-09-24T08:50:33.210Z,1011.40
2022-09-24T08:51:33.578Z,1011.41
2022-09-24T08:52:34.017Z,1011.41
2022-09-24T08:53:33.474Z,1011.40
2022-09-24T08:54:33.235Z,1011.43
2022-09-24T08:55:33.385Z,1011.45
2022-09-24T08:56:33.381Z,1011.46
2022-09-24T08:57:33.338Z,1011.51
2022-09-24T08:58:33.259Z,1011.45
2022-09-24T08:59:33.013Z,1011.51
2022-09-24T09:00:33.277Z,1011.50
2022-09-24T09:01:35.032Z,1011.49
2022-09-24T09:02:33.191Z,1011.47
2022-09-24T09:03:33.136Z,1011.53
2022-09-24T09:04:33.041Z,1011.48
2022-09-24T09:05:33.313Z,1011.52
2022-09-24T09:06:33.144Z,1011.53
2022-09-24T09:07:33.163Z,1011.54
2022-09-24T09:09:01.267Z,1011.53
2022-09-24T09:09:33.167Z,1011.53
2022-09-24T09:10:32.933Z,1011.49
2022-09-24T09:11:33.427Z,1011.57
2022-09-24T09:12:33.202Z,1011.52
2022-09-24T09:13:33.110Z,1011.59
2022-09-24T09:14:37.030Z,1011.57
2022-09-24T09:15:33.176Z,1011.58
2022-09-24T09:16:33.076Z,1011.59
2022-09-24T09:17:32.979Z,1011.58
2022-09-24T09:18:32.994Z,1011.62
2022-09-24T09:19:33.016Z,1011.62
2022-09-24T09:20:33.166Z,1011.63
2022-09-24T09:21:32.752Z,1011.63
2022-09-24T09:22:32.886Z,1011.62
2022-09-24T09:23:32.799Z,1011.63
2022-09-24T09:24:32.895Z,1011.64
2022-09-24T09:25:33.040Z,1011.60
2022-09-24T09:26:33.052Z,1011.60
2022-09-24T09:27:32.918Z,1011.63
2022-09-24T09:28:32.982Z,1011.59
2022-09-24T09:29:32.806Z,1011.61
2022-09-24T09:30:33.074Z,1011.61
2022-09-24T09:31:32.756Z,1011.60
2022-09-24T09:32:32.755Z,1011.66
2022-09-24T09:33:32.873Z,1011.58
2022-09-24T09:34:32.662Z,1011.60
2022-09-24T09:35:32.729Z,1011.57
2022-09-24T09:36:32.969Z,1011.59
2022-09-24T09:37:32.707Z,1011.64
2022-09-24T09:38:32.943Z,1011.60
2022-09-24T09:39:32.974Z,1011.69
2022-09-24T09:40:32.988Z,1011.65
2022-09-24T09:41:32.601Z,1011.65
2022-09-24T09:42:32.847Z,1011.64
2022-09-24T09:43:32.699Z,1011.63
2022-09-24T09:44:32.838Z,1011.64
2022-09-24T09:45:34.467Z,1011.64
2022-09-24T09:46:32.735Z,1011.62
2022-09-24T09:47:32.584Z,1011.64
2022-09-24T09:48:32.751Z,1011.66
2022-09-24T09:49:32.822Z,1011.68
2022-09-24T09:50:33.423Z,1011.67
2022-09-24T09:51:32.639Z,1011.66
2022-09-24T09:52:32.620Z,1011.70
2022-09-24T09:53:33.326Z,1011.69
2022-09-24T09:54:32.579Z,1011.62
2022-09-24T09:55:32.631Z,1011.73
2022-09-24T09:56:33.009Z,1011.76
2022-09-24T09:57:32.561Z,1011.65
2022-09-24T09:58:33.175Z,1011.68
2022-09-24T09:59:32.449Z,1011.65
2022-09-24T10:00:32.754Z,1011.67
2022-09-24T10:01:32.603Z,1011.66
2022-09-24T10:02:32.845Z,1011.70
2022-09-24T10:03:32.509Z,1011.73
2022-09-24T10:04:32.496Z,1011.71
2022-09-24T10:05:32.686Z,1011.70
2022-09-24T10:06:32.502Z,1011.73
2022-09-24T10:07:32.400Z,1011.73
2022-09-24T10:08:32.305Z,1011.77
2022-09-24T10:09:32.233Z,1011.70
2022-09-24T10:10:32.478Z,1011.69
2022-09-24T10:11:32.277Z,1011.75
2022-09-24T10:12:32.165Z,1011.67
2022-09-24T10:13:32.491Z,1011.63
2022-09-24T10:14:32.152Z,1011.67
2022-09-24T10:15:32.313Z,1011.64
2022-09-24T10:16:32.447Z,1011.67
2022-09-24T10:17:32.081Z,1011.65
2022-09-24T10:18:32.199Z,1011.64
2022-09-24T10:19:32.382Z,1011.63
2022-09-24T10:20:32.064Z,1011.72
2022-09-24T10:21:32.310Z,1011.69
2022-09-24T10:22:32.223Z,1011.67
2022-09-24T10:23:32.125Z,1011.60
2022-09-24T10:24:32.114Z,1011.66
2022-09-24T10:25:32.420Z,1011.68
2022-09-24T10:26:33.357Z,1011.60
2022-09-24T10:27:32.507Z,1011.62
2022-09-24T10:28:32.377Z,1011.63
2022-09-24T10:29:33.064Z,1011.64
2022-09-24T10:30:32.166Z,1011.66
2022-09-24T10:31:32.938Z,1011.64
2022-09-24T10:32:32.408Z,1011.66
2022-09-24T10:33:32.337Z,1011.66
2022-09-24T10:34:32.007Z,1011.68
2022-09-24T10:35:32.192Z,1011.60
2022-09-24T10:36:32.057Z,1011.67
2022-09-24T10:37:32.004Z,1011.67
2022-09-24T10:38:32.186Z,1011.71
2022-09-24T10:39:32.107Z,1011.71
2022-09-24T10:40:32.157Z,1011.72
2022-09-24T10:41:32.012Z,1011.76
2022-09-24T10:42:32.763Z,1011.73
2022-09-24T10:43:32.020Z,1011.76
2022-09-24T10:44:31.869Z,1011.75
2022-09-24T10:45:31.885Z,1011.83
2022-09-24T10:46:32.060Z,1011.82
2022-09-24T10:47:31.858Z,1011.84
2022-09-24T10:48:32.190Z,1011.83
2022-09-24T10:49:31.790Z,1011.79
2022-09-24T10:50:31.863Z,1011.83
2022-09-24T10:51:31.799Z,1011.88
2022-09-24T10:52:32.048Z,1011.93
2022-09-24T10:53:31.714Z,1011.95
2022-09-24T10:54:31.693Z,1011.81
2022-09-24T10:55:32.108Z,1011.97
2022-09-24T10:56:32.034Z,1011.92
2022-09-24T10:57:31.887Z,1011.89
2022-09-24T10:58:32.058Z,1011.93
2022-09-24T10:59:31.779Z,1011.91
2022-09-24T11:00:31.897Z,1011.91
2022-09-24T11:01:31.736Z,1011.94
2022-09-24T11:02:31.636Z,1011.95
2022-09-24T11:03:31.655Z,1011.90
2022-09-24T11:04:36.386Z,1011.93
2022-09-24T11:05:32.090Z,1011.92
2022-09-24T11:06:31.677Z,1011.91
2022-09-24T11:07:31.999Z,1011.92
2022-09-24T11:08:32.050Z,1011.92
2022-09-24T11:09:31.775Z,1011.95
2022-09-24T11:10:31.557Z,1012.01
2022-09-24T11:11:32.094Z,1011.95
2022-09-24T11:12:31.757Z,1011.95
2022-09-24T11:13:31.950Z,1011.99
2022-09-24T11:14:31.589Z,1011.98
2022-09-24T11:15:32.261Z,1012.00
2022-09-24T11:16:31.662Z,1012.00
2022-09-24T11:17:31.757Z,1011.98
2022-09-24T11:18:31.483Z,1012.07
2022-09-24T11:19:31.838Z,1012.07
2022-09-24T11:20:33.010Z,1012.03
2022-09-24T11:21:31.719Z,1012.03
2022-09-24T11:22:32.239Z,1012.03
2022-09-24T11:23:31.472Z,1012.10
2022-09-24T11:24:31.456Z,1012.00
2022-09-24T11:25:31.490Z,1012.07
2022-09-24T11:26:32.600Z,1012.04
2022-09-24T11:27:31.839Z,1012.12
2022-09-24T11:28:31.568Z,1012.14
2022-09-24T11:29:36.849Z,1012.06
2022-09-24T11:30:31.386Z,1012.07
2022-09-24T11:31:31.328Z,1012.11
2022-09-24T11:32:31.326Z,1012.06
2022-09-24T11:33:31.261Z,1012.06
2022-09-24T11:34:31.432Z,1012.10
2022-09-24T11:35:31.386Z,1012.14
2022-09-24T11:36:31.328Z,1012.09
2022-09-24T11:37:31.413Z,1012.12
2022-09-24T11:38:31.442Z,1012.15
2022-09-24T11:39:31.403Z,1012.14
2022-09-24T11:40:31.649Z,1012.19
2022-09-24T11:41:31.617Z,1012.18
2022-09-24T11:42:31.204Z,1012.15
2022-09-24T11:43:31.283Z,1012.14
2022-09-24T11:44:31.227Z,1012.21
2022-09-24T11:45:31.474Z,1012.17
2022-09-24T11:46:31.787Z,1012.18
2022-09-24T11:47:31.162Z,1012.18
2022-09-24T11:48:31.756Z,1012.15
2022-09-24T11:49:31.191Z,1012.21
2022-09-24T11:50:31.030Z,1012.21
2022-09-24T11:51:31.453Z,1012.24
2022-09-24T11:52:31.794Z,1012.26
2022-09-24T11:53:31.285Z,1012.22
2022-09-24T11:54:31.209Z,1012.24
2022-09-24T11:55:31.058Z,1012.18
2022-09-24T11:56:31.089Z,1012.24
2022-09-24T11:57:31.447Z,1012.17
2022-09-24T11:58:31.171Z,1012.22
2022-09-24T11:59:31.430Z,1012.19
2022-09-24T12:00:31.068Z,1012.21
2022-09-24T12:01:31.487Z,1012.21
2022-09-24T12:02:31.216Z,1012.20
2022-09-24T12:03:31.497Z,1012.20
2022-09-24T12:04:31.962Z,1012.20
2022-09-24T12:05:31.258Z,1012.18